sensor_id;sensor_type;location;lat;lon;timestamp;P1;durP1;ratioP1;P2;durP2;ratioP2
33644;SDS011;19986;48.190;16.366;2023-08-21T00:01:21;40.30;;;37.80;;
33644;SDS011;19986;48.190;16.366;2023-08-21T00:03:47;40.45;;;37.92;;
33644;SDS011;19986;48.190;16.366;2023-08-21T00:06:13;41.33;;;38.67;;
33644;SDS011;19986;48.190;16.366;2023-08-21T00:08:39;40.47;;;38.08;;
33644;SDS011;19986;48.190;16.366;2023-08-21T00:11:05;43.38;;;40.97;;
33644;SDS011;19986;48.190;16.366;2023-08-21T00:13:30;43.00;;;40.58;;
33644;SDS011;19986;48.190;16.366;2023-08-21T00:15:56;42.03;;;39.47;;
33644;SDS011;19986;48.190;16.366;2023-08-21T00:18:22;39.90;;;37.70;;
33644;SDS011;19986;48.190;16.366;2023-08-21T00:20:48;41.67;;;39.38;;
33644;SDS011;19986;48.190;16.366;2023-08-21T00:23:14;41.08;;;38.67;;
33644;SDS011;19986;48.190;16.366;2023-08-21T00:25:39;40.45;;;38.15;;
33644;SDS011;19986;48.190;16.366;2023-08-21T00:28:07;41.00;;;38.70;;
33644;SDS011;19986;48.190;16.366;2023-08-21T00:30:33;42.85;;;40.25;;
33644;SDS011;19986;48.190;16.366;2023-08-21T00:32:58;43.22;;;40.83;;
33644;SDS011;19986;48.190;16.366;2023-08-21T00:35:24;40.28;;;37.97;;
33644;SDS011;19986;48.190;16.366;2023-08-21T00:37:51;39.45;;;36.88;;
33644;SDS011;19986;48.190;16.366;2023-08-21T00:40:16;40.45;;;38.15;;
33644;SDS011;19986;48.190;16.366;2023-08-21T00:42:42;40.08;;;37.60;;
33644;SDS011;19986;48.190;16.366;2023-08-21T00:45:08;43.25;;;40.65;;
33644;SDS011;19986;48.190;16.366;2023-08-21T00:47:35;42.22;;;39.92;;
33644;SDS011;19986;48.190;16.366;2023-08-21T00:50:01;40.47;;;38.08;;
33644;SDS011;19986;48.190;16.366;2023-08-21T00:52:27;41.85;;;39.33;;
33644;SDS011;19986;48.190;16.366;2023-08-21T00:54:54;43.28;;;40.55;;
33644;SDS011;19986;48.190;16.366;2023-08-21T00:57:20;41.97;;;39.47;;
33644;SDS011;19986;48.190;16.366;2023-08-21T00:59:48;40.33;;;38.08;;
33644;SDS011;19986;48.190;16.366;2023-08-21T01:02:14;40.53;;;38.20;;
33644;SDS011;19986;48.190;16.366;2023-08-21T01:04:40;41.47;;;38.95;;
33644;SDS011;19986;48.190;16.366;2023-08-21T01:07:06;41.00;;;38.60;;
33644;SDS011;19986;48.190;16.366;2023-08-21T01:15:12;40.80;;;38.50;;
33644;SDS011;19986;48.190;16.366;2023-08-21T01:17:39;39.42;;;37.20;;
33644;SDS011;19986;48.190;16.366;2023-08-21T01:20:07;43.20;;;40.60;;
33644;SDS011;19986;48.190;16.366;2023-08-21T01:22:37;42.60;;;40.05;;
33644;SDS011;19986;48.190;16.366;2023-08-21T01:25:07;40.40;;;37.95;;
33644;SDS011;19986;48.190;16.366;2023-08-21T01:27:36;41.25;;;38.67;;
33644;SDS011;19986;48.190;16.366;2023-08-21T01:30:03;42.08;;;39.53;;
33644;SDS011;19986;48.190;16.366;2023-08-21T01:32:41;41.58;;;39.28;;
33644;SDS011;19986;48.190;16.366;2023-08-21T01:35:09;41.97;;;39.45;;
33644;SDS011;19986;48.190;16.366;2023-08-21T01:37:40;43.88;;;41.25;;
33644;SDS011;19986;48.190;16.366;2023-08-21T01:40:08;43.35;;;40.67;;
33644;SDS011;19986;48.190;16.366;2023-08-21T01:42:35;41.28;;;38.80;;
33644;SDS011;19986;48.190;16.366;2023-08-21T01:45:01;42.58;;;39.97;;
33644;SDS011;19986;48.190;16.366;2023-08-21T01:47:28;42.55;;;39.63;;
33644;SDS011;19986;48.190;16.366;2023-08-21T01:49:55;39.50;;;37.30;;
33644;SDS011;19986;48.190;16.366;2023-08-21T01:52:21;42.20;;;39.85;;
33644;SDS011;19986;48.190;16.366;2023-08-21T01:54:48;42.38;;;39.67;;
33644;SDS011;19986;48.190;16.366;2023-08-21T01:57:15;41.28;;;38.67;;
33644;SDS011;19986;48.190;16.366;2023-08-21T01:59:41;41.80;;;39.40;;
33644;SDS011;19986;48.190;16.366;2023-08-21T02:02:08;41.92;;;39.53;;
33644;SDS011;19986;48.190;16.366;2023-08-21T02:04:34;41.72;;;39.35;;
33644;SDS011;19986;48.190;16.366;2023-08-21T02:07:01;41.92;;;39.47;;
33644;SDS011;19986;48.190;16.366;2023-08-21T02:09:27;42.17;;;39.55;;
33644;SDS011;19986;48.190;16.366;2023-08-21T02:11:54;40.17;;;37.78;;
33644;SDS011;19986;48.190;16.366;2023-08-21T02:14:20;40.75;;;38.25;;
33644;SDS011;19986;48.190;16.366;2023-08-21T02:16:47;42.15;;;39.55;;
33644;SDS011;19986;48.190;16.366;2023-08-21T02:19:14;42.88;;;40.17;;
33644;SDS011;19986;48.190;16.366;2023-08-21T02:21:40;42.08;;;39.47;;
33644;SDS011;19986;48.190;16.366;2023-08-21T02:24:06;41.08;;;38.67;;
33644;SDS011;19986;48.190;16.366;2023-08-21T02:26:32;42.67;;;39.97;;
33644;SDS011;19986;48.190;16.366;2023-08-21T02:28:59;41.90;;;39.50;;
33644;SDS011;19986;48.190;16.366;2023-08-21T02:31:26;39.97;;;37.47;;
33644;SDS011;19986;48.190;16.366;2023-08-21T02:33:51;41.38;;;38.90;;
33644;SDS011;19986;48.190;16.366;2023-08-21T02:36:18;42.00;;;39.60;;
33644;SDS011;19986;48.190;16.366;2023-08-21T02:38:45;42.67;;;40.15;;
33644;SDS011;19986;48.190;16.366;2023-08-21T02:41:10;40.95;;;38.53;;
33644;SDS011;19986;48.190;16.366;2023-08-21T02:43:36;41.15;;;38.67;;
33644;SDS011;19986;48.190;16.366;2023-08-21T02:46:02;41.97;;;39.47;;
33644;SDS011;19986;48.190;16.366;2023-08-21T02:48:28;41.85;;;39.35;;
33644;SDS011;19986;48.190;16.366;2023-08-21T02:50:54;42.75;;;40.25;;
33644;SDS011;19986;48.190;16.366;2023-08-21T02:53:20;42.95;;;40.35;;
33644;SDS011;19986;48.190;16.366;2023-08-21T02:55:46;42.00;;;39.50;;
33644;SDS011;19986;48.190;16.366;2023-08-21T02:58:11;42.28;;;39.72;;
33644;SDS011;19986;48.190;16.366;2023-08-21T03:00:37;43.75;;;41.15;;
33644;SDS011;19986;48.190;16.366;2023-08-21T03:03:03;39.55;;;37.15;;
33644;SDS011;19986;48.190;16.366;2023-08-21T03:05:29;44.75;;;41.95;;
33644;SDS011;19986;48.190;16.366;2023-08-21T03:07:55;41.35;;;38.85;;
33644;SDS011;19986;48.190;16.366;2023-08-21T03:10:21;41.38;;;38.97;;
33644;SDS011;19986;48.190;16.366;2023-08-21T03:12:48;44.67;;;42.08;;
33644;SDS011;19986;48.190;16.366;2023-08-21T03:15:14;43.13;;;40.33;;
33644;SDS011;19986;48.190;16.366;2023-08-21T03:17:40;43.30;;;40.72;;
33644;SDS011;19986;48.190;16.366;2023-08-21T03:20:07;43.42;;;41.03;;
33644;SDS011;19986;48.190;16.366;2023-08-21T03:22:33;41.83;;;39.28;;
33644;SDS011;19986;48.190;16.366;2023-08-21T03:24:59;41.92;;;39.22;;
33644;SDS011;19986;48.190;16.366;2023-08-21T03:27:25;42.58;;;39.88;;
33644;SDS011;19986;48.190;16.366;2023-08-21T03:29:51;43.60;;;40.70;;
33644;SDS011;19986;48.190;16.366;2023-08-21T03:32:17;42.42;;;39.92;;
33644;SDS011;19986;48.190;16.366;2023-08-21T03:34:43;44.53;;;41.42;;
33644;SDS011;19986;48.190;16.366;2023-08-21T03:37:09;41.40;;;39.08;;
33644;SDS011;19986;48.190;16.366;2023-08-21T03:39:35;42.63;;;40.03;;
33644;SDS011;19986;48.190;16.366;2023-08-21T03:42:01;42.63;;;39.90;;
33644;SDS011;19986;48.190;16.366;2023-08-21T03:44:27;42.33;;;39.25;;
33644;SDS011;19986;48.190;16.366;2023-08-21T03:46:53;43.05;;;40.38;;
33644;SDS011;19986;48.190;16.366;2023-08-21T03:49:19;43.83;;;41.20;;
33644;SDS011;19986;48.190;16.366;2023-08-21T03:51:45;43.88;;;41.38;;
33644;SDS011;19986;48.190;16.366;2023-08-21T03:54:10;44.72;;;41.78;;
33644;SDS011;19986;48.190;16.366;2023-08-21T03:56:36;43.30;;;40.47;;
33644;SDS011;19986;48.190;16.366;2023-08-21T03:59:02;44.13;;;41.42;;
33644;SDS011;19986;48.190;16.366;2023-08-21T04:01:30;42.78;;;40.10;;
33644;SDS011;19986;48.190;16.366;2023-08-21T04:03:56;42.65;;;39.95;;
33644;SDS011;19986;48.190;16.366;2023-08-21T04:06:23;41.58;;;39.13;;
33644;SDS011;19986;48.190;16.366;2023-08-21T04:08:48;41.78;;;39.20;;
33644;SDS011;19986;48.190;16.366;2023-08-21T04:11:15;41.38;;;38.90;;
33644;SDS011;19986;48.190;16.366;2023-08-21T04:13:41;41.38;;;38.75;;
33644;SDS011;19986;48.190;16.366;2023-08-21T04:16:07;43.65;;;41.05;;
33644;SDS011;19986;48.190;16.366;2023-08-21T04:18:33;43.65;;;40.90;;
33644;SDS011;19986;48.190;16.366;2023-08-21T04:21:01;44.70;;;42.10;;
33644;SDS011;19986;48.190;16.366;2023-08-21T04:23:27;42.50;;;39.95;;
33644;SDS011;19986;48.190;16.366;2023-08-21T04:25:53;44.45;;;41.65;;
33644;SDS011;19986;48.190;16.366;2023-08-21T04:28:26;44.08;;;41.38;;
33644;SDS011;19986;48.190;16.366;2023-08-21T04:30:52;43.65;;;40.83;;
33644;SDS011;19986;48.190;16.366;2023-08-21T04:33:18;44.78;;;41.78;;
33644;SDS011;19986;48.190;16.366;2023-08-21T04:35:43;44.58;;;41.90;;
33644;SDS011;19986;48.190;16.366;2023-08-21T04:38:09;42.22;;;39.67;;
33644;SDS011;19986;48.190;16.366;2023-08-21T04:40:35;43.45;;;40.92;;
33644;SDS011;19986;48.190;16.366;2023-08-21T04:43:01;43.80;;;41.03;;
33644;SDS011;19986;48.190;16.366;2023-08-21T04:45:27;46.22;;;43.17;;
33644;SDS011;19986;48.190;16.366;2023-08-21T04:47:52;43.70;;;40.60;;
33644;SDS011;19986;48.190;16.366;2023-08-21T04:50:18;43.65;;;40.88;;
33644;SDS011;19986;48.190;16.366;2023-08-21T04:52:44;45.08;;;42.47;;
33644;SDS011;19986;48.190;16.366;2023-08-21T04:55:10;43.22;;;40.42;;
33644;SDS011;19986;48.190;16.366;2023-08-21T04:57:36;42.20;;;39.33;;
33644;SDS011;19986;48.190;16.366;2023-08-21T05:00:01;43.00;;;40.10;;
33644;SDS011;19986;48.190;16.366;2023-08-21T05:02:29;42.80;;;40.05;;
33644;SDS011;19986;48.190;16.366;2023-08-21T05:04:55;45.65;;;42.85;;
33644;SDS011;19986;48.190;16.366;2023-08-21T05:07:20;43.53;;;40.72;;
33644;SDS011;19986;48.190;16.366;2023-08-21T05:09:46;42.67;;;39.90;;
33644;SDS011;19986;48.190;16.366;2023-08-21T05:12:12;44.20;;;41.50;;
33644;SDS011;19986;48.190;16.366;2023-08-21T05:14:38;42.90;;;40.15;;
33644;SDS011;19986;48.190;16.366;2023-08-21T05:17:03;42.42;;;39.53;;
33644;SDS011;19986;48.190;16.366;2023-08-21T05:19:29;43.60;;;40.60;;
33644;SDS011;19986;48.190;16.366;2023-08-21T05:21:55;43.40;;;40.67;;
33644;SDS011;19986;48.190;16.366;2023-08-21T05:24:21;41.90;;;39.35;;
33644;SDS011;19986;48.190;16.366;2023-08-21T05:26:46;43.33;;;40.15;;
33644;SDS011;19986;48.190;16.366;2023-08-21T05:29:12;41.38;;;38.35;;
33644;SDS011;19986;48.190;16.366;2023-08-21T05:31:38;42.38;;;39.70;;
33644;SDS011;19986;48.190;16.366;2023-08-21T05:34:04;44.08;;;41.17;;
33644;SDS011;19986;48.190;16.366;2023-08-21T05:36:30;41.08;;;38.28;;
33644;SDS011;19986;48.190;16.366;2023-08-21T05:38:56;43.78;;;40.97;;
33644;SDS011;19986;48.190;16.366;2023-08-21T05:41:22;42.65;;;39.80;;
33644;SDS011;19986;48.190;16.366;2023-08-21T05:43:48;43.55;;;40.63;;
33644;SDS011;19986;48.190;16.366;2023-08-21T05:46:14;41.72;;;38.85;;
33644;SDS011;19986;48.190;16.366;2023-08-21T05:48:40;43.42;;;40.17;;
33644;SDS011;19986;48.190;16.366;2023-08-21T05:51:06;43.03;;;39.85;;
33644;SDS011;19986;48.190;16.366;2023-08-21T05:53:31;41.88;;;39.10;;
33644;SDS011;19986;48.190;16.366;2023-08-21T05:55:57;43.25;;;40.13;;
33644;SDS011;19986;48.190;16.366;2023-08-21T05:58:23;46.60;;;43.05;;
33644;SDS011;19986;48.190;16.366;2023-08-21T06:00:54;45.35;;;42.38;;
33644;SDS011;19986;48.190;16.366;2023-08-21T06:03:21;43.85;;;40.92;;
33644;SDS011;19986;48.190;16.366;2023-08-21T06:05:47;43.72;;;40.95;;
33644;SDS011;19986;48.190;16.366;2023-08-21T06:08:13;43.47;;;40.58;;
33644;SDS011;19986;48.190;16.366;2023-08-21T06:10:38;42.28;;;39.65;;
33644;SDS011;19986;48.190;16.366;2023-08-21T06:13:04;42.00;;;39.15;;
33644;SDS011;19986;48.190;16.366;2023-08-21T06:15:30;45.40;;;41.92;;
33644;SDS011;19986;48.190;16.366;2023-08-21T06:17:56;40.67;;;37.88;;
33644;SDS011;19986;48.190;16.366;2023-08-21T06:20:23;42.67;;;39.60;;
33644;SDS011;19986;48.190;16.366;2023-08-21T06:22:49;42.80;;;39.95;;
33644;SDS011;19986;48.190;16.366;2023-08-21T06:25:15;42.85;;;39.63;;
33644;SDS011;19986;48.190;16.366;2023-08-21T06:27:41;41.70;;;39.03;;
33644;SDS011;19986;48.190;16.366;2023-08-21T06:30:07;42.90;;;39.88;;
33644;SDS011;19986;48.190;16.366;2023-08-21T06:32:33;44.22;;;40.70;;
33644;SDS011;19986;48.190;16.366;2023-08-21T06:34:59;45.15;;;42.00;;
33644;SDS011;19986;48.190;16.366;2023-08-21T06:37:25;45.75;;;41.90;;
33644;SDS011;19986;48.190;16.366;2023-08-21T06:39:51;44.13;;;41.22;;
33644;SDS011;19986;48.190;16.366;2023-08-21T06:42:17;43.72;;;40.47;;
33644;SDS011;19986;48.190;16.366;2023-08-21T06:44:43;45.55;;;41.92;;
33644;SDS011;19986;48.190;16.366;2023-08-21T06:47:09;44.45;;;41.25;;
33644;SDS011;19986;48.190;16.366;2023-08-21T06:49:35;44.03;;;40.72;;
33644;SDS011;19986;48.190;16.366;2023-08-21T06:52:01;43.72;;;40.55;;
33644;SDS011;19986;48.190;16.366;2023-08-21T06:54:28;43.72;;;40.47;;
33644;SDS011;19986;48.190;16.366;2023-08-21T06:56:54;45.03;;;42.08;;
33644;SDS011;19986;48.190;16.366;2023-08-21T06:59:19;43.40;;;40.50;;
33644;SDS011;19986;48.190;16.366;2023-08-21T07:01:45;42.47;;;39.03;;
33644;SDS011;19986;48.190;16.366;2023-08-21T07:04:11;43.60;;;40.63;;
33644;SDS011;19986;48.190;16.366;2023-08-21T07:06:37;43.47;;;40.10;;
33644;SDS011;19986;48.190;16.366;2023-08-21T07:09:03;44.60;;;41.28;;
33644;SDS011;19986;48.190;16.366;2023-08-21T07:11:29;42.05;;;38.67;;
33644;SDS011;19986;48.190;16.366;2023-08-21T07:13:55;43.53;;;40.30;;
33644;SDS011;19986;48.190;16.366;2023-08-21T07:16:20;45.95;;;42.85;;
33644;SDS011;19986;48.190;16.366;2023-08-21T07:18:46;43.90;;;40.70;;
33644;SDS011;19986;48.190;16.366;2023-08-21T07:21:12;47.28;;;43.78;;
33644;SDS011;19986;48.190;16.366;2023-08-21T07:23:38;44.25;;;41.35;;
33644;SDS011;19986;48.190;16.366;2023-08-21T07:26:04;45.58;;;42.55;;
33644;SDS011;19986;48.190;16.366;2023-08-21T07:28:32;46.20;;;42.95;;
33644;SDS011;19986;48.190;16.366;2023-08-21T07:30:58;45.45;;;42.13;;
33644;SDS011;19986;48.190;16.366;2023-08-21T07:33:24;44.35;;;41.33;;
33644;SDS011;19986;48.190;16.366;2023-08-21T07:35:58;44.83;;;41.78;;
33644;SDS011;19986;48.190;16.366;2023-08-21T07:38:24;43.75;;;40.80;;
33644;SDS011;19986;48.190;16.366;2023-08-21T07:40:50;45.22;;;42.03;;
33644;SDS011;19986;48.190;16.366;2023-08-21T07:43:16;43.85;;;40.42;;
33644;SDS011;19986;48.190;16.366;2023-08-21T07:45:41;44.15;;;41.00;;
33644;SDS011;19986;48.190;16.366;2023-08-21T07:48:07;45.63;;;42.10;;
33644;SDS011;19986;48.190;16.366;2023-08-21T07:50:34;44.00;;;41.00;;
33644;SDS011;19986;48.190;16.366;2023-08-21T07:53:00;42.45;;;39.65;;
33644;SDS011;19986;48.190;16.366;2023-08-21T07:55:26;43.40;;;40.33;;
33644;SDS011;19986;48.190;16.366;2023-08-21T07:57:52;44.90;;;41.53;;
33644;SDS011;19986;48.190;16.366;2023-08-21T08:00:17;42.33;;;39.28;;
33644;SDS011;19986;48.190;16.366;2023-08-21T08:02:44;40.65;;;38.05;;
33644;SDS011;19986;48.190;16.366;2023-08-21T08:05:10;40.03;;;37.70;;
33644;SDS011;19986;48.190;16.366;2023-08-21T08:07:36;40.42;;;37.78;;
33644;SDS011;19986;48.190;16.366;2023-08-21T08:10:02;41.35;;;38.08;;
33644;SDS011;19986;48.190;16.366;2023-08-21T08:12:28;40.13;;;37.63;;
33644;SDS011;19986;48.190;16.366;2023-08-21T08:14:54;40.60;;;38.13;;
33644;SDS011;19986;48.190;16.366;2023-08-21T08:17:20;40.67;;;38.08;;
33644;SDS011;19986;48.190;16.366;2023-08-21T08:19:45;41.35;;;38.85;;
33644;SDS011;19986;48.190;16.366;2023-08-21T08:22:11;40.10;;;37.40;;
33644;SDS011;19986;48.190;16.366;2023-08-21T08:24:37;38.90;;;36.38;;
33644;SDS011;19986;48.190;16.366;2023-08-21T08:27:03;42.03;;;39.25;;
33644;SDS011;19986;48.190;16.366;2023-08-21T08:29:29;38.80;;;36.38;;
33644;SDS011;19986;48.190;16.366;2023-08-21T08:31:55;39.50;;;36.47;;
33644;SDS011;19986;48.190;16.366;2023-08-21T08:34:20;37.35;;;35.00;;
33644;SDS011;19986;48.190;16.366;2023-08-21T08:36:46;39.83;;;37.10;;
33644;SDS011;19986;48.190;16.366;2023-08-21T08:39:12;41.92;;;39.33;;
33644;SDS011;19986;48.190;16.366;2023-08-21T08:41:41;41.47;;;38.80;;
33644;SDS011;19986;48.190;16.366;2023-08-21T08:44:07;41.58;;;38.60;;
33644;SDS011;19986;48.190;16.366;2023-08-21T08:46:34;40.28;;;37.42;;
33644;SDS011;19986;48.190;16.366;2023-08-21T08:49:00;40.22;;;37.83;;
33644;SDS011;19986;48.190;16.366;2023-08-21T08:51:28;41.88;;;39.33;;
33644;SDS011;19986;48.190;16.366;2023-08-21T08:53:55;40.60;;;37.78;;
33644;SDS011;19986;48.190;16.366;2023-08-21T08:56:23;39.47;;;36.75;;
33644;SDS011;19986;48.190;16.366;2023-08-21T08:58:49;40.15;;;37.60;;
33644;SDS011;19986;48.190;16.366;2023-08-21T09:01:16;40.53;;;37.83;;
33644;SDS011;19986;48.190;16.366;2023-08-21T09:03:42;39.33;;;36.95;;
33644;SDS011;19986;48.190;16.366;2023-08-21T09:06:07;41.63;;;38.92;;
33644;SDS011;19986;48.190;16.366;2023-08-21T09:08:33;40.22;;;37.17;;
33644;SDS011;19986;48.190;16.366;2023-08-21T09:11:02;41.50;;;38.45;;
33644;SDS011;19986;48.190;16.366;2023-08-21T09:13:28;40.65;;;37.97;;
33644;SDS011;19986;48.190;16.366;2023-08-21T09:15:56;40.03;;;37.53;;
33644;SDS011;19986;48.190;16.366;2023-08-21T09:18:23;39.80;;;36.78;;
33644;SDS011;19986;48.190;16.366;2023-08-21T09:20:49;40.33;;;37.45;;
33644;SDS011;19986;48.190;16.366;2023-08-21T09:23:16;38.38;;;35.88;;
33644;SDS011;19986;48.190;16.366;2023-08-21T09:25:47;38.35;;;35.97;;
33644;SDS011;19986;48.190;16.366;2023-08-21T09:28:13;38.22;;;35.92;;
33644;SDS011;19986;48.190;16.366;2023-08-21T09:30:55;39.35;;;36.88;;
33644;SDS011;19986;48.190;16.366;2023-08-21T09:33:23;39.00;;;36.67;;
33644;SDS011;19986;48.190;16.366;2023-08-21T09:35:53;38.67;;;36.28;;
33644;SDS011;19986;48.190;16.366;2023-08-21T09:38:19;38.63;;;36.33;;
33644;SDS011;19986;48.190;16.366;2023-08-21T09:40:52;36.90;;;34.70;;
33644;SDS011;19986;48.190;16.366;2023-08-21T09:43:22;39.20;;;36.60;;
33644;SDS011;19986;48.190;16.366;2023-08-21T09:45:50;39.25;;;36.80;;
33644;SDS011;19986;48.190;16.366;2023-08-21T09:48:23;40.55;;;37.72;;
33644;SDS011;19986;48.190;16.366;2023-08-21T09:50:52;39.25;;;36.30;;
33644;SDS011;19986;48.190;16.366;2023-08-21T09:53:20;38.78;;;36.30;;
33644;SDS011;19986;48.190;16.366;2023-08-21T09:55:47;41.03;;;38.20;;
33644;SDS011;19986;48.190;16.366;2023-08-21T09:58:17;38.20;;;35.97;;
33644;SDS011;19986;48.190;16.366;2023-08-21T10:00:45;39.05;;;36.40;;
33644;SDS011;19986;48.190;16.366;2023-08-21T10:03:13;37.70;;;35.28;;
33644;SDS011;19986;48.190;16.366;2023-08-21T10:05:45;38.58;;;36.17;;
33644;SDS011;19986;48.190;16.366;2023-08-21T10:08:13;39.72;;;36.83;;
33644;SDS011;19986;48.190;16.366;2023-08-21T10:10:41;39.53;;;36.90;;
33644;SDS011;19986;48.190;16.366;2023-08-21T10:13:07;39.03;;;36.33;;
33644;SDS011;19986;48.190;16.366;2023-08-21T10:15:33;40.13;;;37.20;;
33644;SDS011;19986;48.190;16.366;2023-08-21T10:20:45;39.40;;;36.55;;
33644;SDS011;19986;48.190;16.366;2023-08-21T10:23:23;38.72;;;36.30;;
33644;SDS011;19986;48.190;16.366;2023-08-21T10:26:00;38.28;;;35.97;;
33644;SDS011;19986;48.190;16.366;2023-08-21T10:33:53;37.17;;;34.97;;
33644;SDS011;19986;48.190;16.366;2023-08-21T10:39:18;37.65;;;35.30;;
33644;SDS011;19986;48.190;16.366;2023-08-21T10:49:57;34.75;;;32.53;;
33644;SDS011;19986;48.190;16.366;2023-08-21T10:52:25;34.83;;;32.50;;
33644;SDS011;19986;48.190;16.366;2023-08-21T10:54:53;35.60;;;33.35;;
33644;SDS011;19986;48.190;16.366;2023-08-21T10:57:21;34.03;;;31.83;;
33644;SDS011;19986;48.190;16.366;2023-08-21T10:59:51;35.45;;;33.25;;
33644;SDS011;19986;48.190;16.366;2023-08-21T11:02:22;35.90;;;33.72;;
33644;SDS011;19986;48.190;16.366;2023-08-21T11:04:49;33.95;;;31.60;;
33644;SDS011;19986;48.190;16.366;2023-08-21T11:07:16;34.97;;;32.75;;
33644;SDS011;19986;48.190;16.366;2023-08-21T11:09:43;35.60;;;33.65;;
33644;SDS011;19986;48.190;16.366;2023-08-21T11:12:12;34.83;;;32.75;;
33644;SDS011;19986;48.190;16.366;2023-08-21T11:14:40;36.28;;;33.92;;
33644;SDS011;19986;48.190;16.366;2023-08-21T11:17:06;35.42;;;33.08;;
33644;SDS011;19986;48.190;16.366;2023-08-21T11:19:33;36.30;;;34.03;;
33644;SDS011;19986;48.190;16.366;2023-08-21T11:22:00;34.83;;;32.90;;
33644;SDS011;19986;48.190;16.366;2023-08-21T11:24:30;32.55;;;30.45;;
33644;SDS011;19986;48.190;16.366;2023-08-21T11:27:09;35.63;;;33.33;;
33644;SDS011;19986;48.190;16.366;2023-08-21T11:29:37;35.42;;;33.40;;
33644;SDS011;19986;48.190;16.366;2023-08-21T11:32:10;35.30;;;33.28;;
33644;SDS011;19986;48.190;16.366;2023-08-21T11:34:38;34.13;;;32.05;;
33644;SDS011;19986;48.190;16.366;2023-08-21T11:37:05;35.63;;;33.30;;
33644;SDS011;19986;48.190;16.366;2023-08-21T11:42:32;36.00;;;33.80;;
33644;SDS011;19986;48.190;16.366;2023-08-21T11:44:59;33.10;;;31.08;;
33644;SDS011;19986;48.190;16.366;2023-08-21T11:47:30;35.28;;;33.10;;
33644;SDS011;19986;48.190;16.366;2023-08-21T11:50:01;35.47;;;33.08;;
33644;SDS011;19986;48.190;16.366;2023-08-21T11:52:31;35.55;;;32.85;;
33644;SDS011;19986;48.190;16.366;2023-08-21T11:54:58;34.00;;;31.75;;
33644;SDS011;19986;48.190;16.366;2023-08-21T11:57:24;34.10;;;32.08;;
33644;SDS011;19986;48.190;16.366;2023-08-21T11:59:51;35.47;;;33.15;;
33644;SDS011;19986;48.190;16.366;2023-08-21T12:02:21;35.42;;;33.40;;
33644;SDS011;19986;48.190;16.366;2023-08-21T12:05:04;35.13;;;32.97;;
33644;SDS011;19986;48.190;16.366;2023-08-21T12:07:31;34.42;;;32.42;;
33644;SDS011;19986;48.190;16.366;2023-08-21T12:10:00;35.70;;;33.50;;
33644;SDS011;19986;48.190;16.366;2023-08-21T12:12:26;34.42;;;32.33;;
33644;SDS011;19986;48.190;16.366;2023-08-21T12:14:52;35.22;;;33.25;;
33644;SDS011;19986;48.190;16.366;2023-08-21T12:17:18;33.78;;;31.58;;
33644;SDS011;19986;48.190;16.366;2023-08-21T12:19:45;35.45;;;33.42;;
33644;SDS011;19986;48.190;16.366;2023-08-21T12:22:10;35.83;;;33.83;;
33644;SDS011;19986;48.190;16.366;2023-08-21T12:24:37;35.20;;;32.97;;
33644;SDS011;19986;48.190;16.366;2023-08-21T12:27:03;36.47;;;34.17;;
33644;SDS011;19986;48.190;16.366;2023-08-21T12:29:29;36.03;;;34.05;;
33644;SDS011;19986;48.190;16.366;2023-08-21T12:31:55;36.15;;;33.80;;
33644;SDS011;19986;48.190;16.366;2023-08-21T12:34:21;36.88;;;34.63;;
33644;SDS011;19986;48.190;16.366;2023-08-21T12:36:49;36.35;;;34.08;;
33644;SDS011;19986;48.190;16.366;2023-08-21T12:39:16;36.42;;;34.05;;
33644;SDS011;19986;48.190;16.366;2023-08-21T12:41:42;37.03;;;34.90;;
33644;SDS011;19986;48.190;16.366;2023-08-21T12:44:08;36.63;;;34.47;;
33644;SDS011;19986;48.190;16.366;2023-08-21T12:46:36;37.67;;;35.38;;
33644;SDS011;19986;48.190;16.366;2023-08-21T12:49:02;35.75;;;33.75;;
33644;SDS011;19986;48.190;16.366;2023-08-21T12:51:29;36.95;;;34.47;;
33644;SDS011;19986;48.190;16.366;2023-08-21T12:53:55;35.63;;;33.60;;
33644;SDS011;19986;48.190;16.366;2023-08-21T12:56:21;36.38;;;33.65;;
33644;SDS011;19986;48.190;16.366;2023-08-21T12:58:47;36.83;;;34.50;;
33644;SDS011;19986;48.190;16.366;2023-08-21T13:01:14;34.03;;;31.83;;
33644;SDS011;19986;48.190;16.366;2023-08-21T13:03:46;34.25;;;31.80;;
33644;SDS011;19986;48.190;16.366;2023-08-21T13:06:15;35.60;;;33.30;;
33644;SDS011;19986;48.190;16.366;2023-08-21T13:08:41;35.58;;;32.92;;
33644;SDS011;19986;48.190;16.366;2023-08-21T13:11:07;35.65;;;33.42;;
33644;SDS011;19986;48.190;16.366;2023-08-21T13:13:35;34.85;;;32.80;;
33644;SDS011;19986;48.190;16.366;2023-08-21T13:16:01;35.80;;;33.50;;
33644;SDS011;19986;48.190;16.366;2023-08-21T13:18:28;33.28;;;30.98;;
33644;SDS011;19986;48.190;16.366;2023-08-21T13:20:55;36.28;;;34.00;;
33644;SDS011;19986;48.190;16.366;2023-08-21T13:23:21;34.63;;;32.72;;
33644;SDS011;19986;48.190;16.366;2023-08-21T13:25:47;36.00;;;33.42;;
33644;SDS011;19986;48.190;16.366;2023-08-21T13:28:14;36.20;;;34.08;;
33644;SDS011;19986;48.190;16.366;2023-08-21T13:30:39;36.70;;;34.55;;
33644;SDS011;19986;48.190;16.366;2023-08-21T13:33:06;35.22;;;33.22;;
33644;SDS011;19986;48.190;16.366;2023-08-21T13:35:32;36.08;;;34.08;;
33644;SDS011;19986;48.190;16.366;2023-08-21T13:37:58;33.88;;;31.73;;
33644;SDS011;19986;48.190;16.366;2023-08-21T13:40:25;35.45;;;32.92;;
33644;SDS011;19986;48.190;16.366;2023-08-21T13:42:52;34.95;;;32.78;;
33644;SDS011;19986;48.190;16.366;2023-08-21T13:45:19;34.85;;;32.65;;
33644;SDS011;19986;48.190;16.366;2023-08-21T13:47:46;32.92;;;30.83;;
33644;SDS011;19986;48.190;16.366;2023-08-21T13:50:14;35.92;;;33.63;;
33644;SDS011;19986;48.190;16.366;2023-08-21T13:52:41;33.80;;;31.38;;
33644;SDS011;19986;48.190;16.366;2023-08-21T13:55:08;32.95;;;31.10;;
33644;SDS011;19986;48.190;16.366;2023-08-21T13:57:35;33.80;;;31.85;;
33644;SDS011;19986;48.190;16.366;2023-08-21T14:00:03;34.22;;;31.88;;
33644;SDS011;19986;48.190;16.366;2023-08-21T14:02:36;35.63;;;33.50;;
33644;SDS011;19986;48.190;16.366;2023-08-21T14:05:02;34.92;;;32.30;;
33644;SDS011;19986;48.190;16.366;2023-08-21T14:07:34;36.15;;;34.05;;
33644;SDS011;19986;48.190;16.366;2023-08-21T14:10:00;35.17;;;32.97;;
33644;SDS011;19986;48.190;16.366;2023-08-21T14:12:29;34.95;;;32.75;;
33644;SDS011;19986;48.190;16.366;2023-08-21T14:14:56;36.83;;;33.72;;
33644;SDS011;19986;48.190;16.366;2023-08-21T14:17:23;36.03;;;33.72;;
33644;SDS011;19986;48.190;16.366;2023-08-21T14:19:49;35.60;;;33.15;;
33644;SDS011;19986;48.190;16.366;2023-08-21T14:22:15;33.53;;;31.55;;
33644;SDS011;19986;48.190;16.366;2023-08-21T14:24:41;32.13;;;30.33;;
33644;SDS011;19986;48.190;16.366;2023-08-21T14:27:07;32.88;;;31.17;;
33644;SDS011;19986;48.190;16.366;2023-08-21T14:29:32;33.95;;;32.03;;
33644;SDS011;19986;48.190;16.366;2023-08-21T14:31:58;34.50;;;32.72;;
33644;SDS011;19986;48.190;16.366;2023-08-21T14:34:25;33.45;;;31.45;;